Terminal Aerodrome Forecast
Issued by NWS Jackson, KY

Home | Current Version | Previous Version | Text Only | Print | Product List | Glossary On
Versions: 1 2 3 4 5 6 7 8 9 10 11 12 13 14 15
000
FTUS43 KJKL 280557
TAFLOZ
TAF
KLOZ 280557Z 2806/2906 00000KT P6SM SCT100
     FM280900 00000KT 5SM BR BKN100
     FM281200 VRB03KT P6SM SCT100
     FM281800 20007KT P6SM VCTS BKN040CB
     FM290100 VRB03KT P6SM SCT040=

USA.gov is the U.S. government's official web portal to all federal, state and local government web resources and services.